sensor_id;sensor_type;location;lat;lon;timestamp;temperature;humidity
21037;DHT22;10677;50.942;4.028;2023-02-11T00:03:49;7.20;99.90
21037;DHT22;10677;50.942;4.028;2023-02-11T00:06:15;7.30;99.90
21037;DHT22;10677;50.942;4.028;2023-02-11T00:08:41;7.30;99.90
21037;DHT22;10677;50.942;4.028;2023-02-11T00:11:13;7.30;99.90
21037;DHT22;10677;50.942;4.028;2023-02-11T00:13:40;7.30;99.90
21037;DHT22;10677;50.942;4.028;2023-02-11T00:16:14;7.40;99.90
21037;DHT22;10677;50.942;4.028;2023-02-11T00:18:40;7.30;99.90
21037;DHT22;10677;50.942;4.028;2023-02-11T00:21:15;7.30;99.90
21037;DHT22;10677;50.942;4.028;2023-02-11T00:23:41;7.20;99.90
21037;DHT22;10677;50.942;4.028;2023-02-11T00:26:14;7.20;99.90
21037;DHT22;10677;50.942;4.028;2023-02-11T00:28:39;7.10;99.90
21037;DHT22;10677;50.942;4.028;2023-02-11T00:31:05;7.00;99.90
21037;DHT22;10677;50.942;4.028;2023-02-11T00:33:31;7.00;99.90
21037;DHT22;10677;50.942;4.028;2023-02-11T00:35:57;7.00;99.90
21037;DHT22;10677;50.942;4.028;2023-02-11T00:38:23;7.00;99.90
21037;DHT22;10677;50.942;4.028;2023-02-11T00:40:48;7.00;99.90
21037;DHT22;10677;50.942;4.028;2023-02-11T00:43:15;7.10;99.90
21037;DHT22;10677;50.942;4.028;2023-02-11T00:45:40;7.20;99.90
21037;DHT22;10677;50.942;4.028;2023-02-11T00:48:06;7.10;99.90
21037;DHT22;10677;50.942;4.028;2023-02-11T00:50:32;7.10;99.90
21037;DHT22;10677;50.942;4.028;2023-02-11T00:52:57;7.10;99.90
21037;DHT22;10677;50.942;4.028;2023-02-11T00:55:23;7.00;99.90
21037;DHT22;10677;50.942;4.028;2023-02-11T00:57:48;6.90;99.90
21037;DHT22;10677;50.942;4.028;2023-02-11T01:00:14;6.90;99.90
21037;DHT22;10677;50.942;4.028;2023-02-11T01:02:40;6.90;99.90
21037;DHT22;10677;50.942;4.028;2023-02-11T01:05:06;6.90;99.90
21037;DHT22;10677;50.942;4.028;2023-02-11T01:07:32;6.90;99.90
21037;DHT22;10677;50.942;4.028;2023-02-11T01:09:58;6.90;99.90
21037;DHT22;10677;50.942;4.028;2023-02-11T01:12:24;6.80;99.90
21037;DHT22;10677;50.942;4.028;2023-02-11T01:14:50;6.80;99.90
21037;DHT22;10677;50.942;4.028;2023-02-11T01:17:15;6.80;99.90
21037;DHT22;10677;50.942;4.028;2023-02-11T01:19:41;6.80;99.90
21037;DHT22;10677;50.942;4.028;2023-02-11T01:22:07;6.90;99.90
21037;DHT22;10677;50.942;4.028;2023-02-11T01:24:32;7.00;99.90
21037;DHT22;10677;50.942;4.028;2023-02-11T01:26:58;7.00;99.90
21037;DHT22;10677;50.942;4.028;2023-02-11T01:29:24;7.00;99.90
21037;DHT22;10677;50.942;4.028;2023-02-11T01:31:49;6.90;99.90
21037;DHT22;10677;50.942;4.028;2023-02-11T01:34:15;6.80;99.90
21037;DHT22;10677;50.942;4.028;2023-02-11T01:36:41;6.80;99.90
21037;DHT22;10677;50.942;4.028;2023-02-11T01:39:07;6.80;99.90
21037;DHT22;10677;50.942;4.028;2023-02-11T01:41:33;6.80;99.90
21037;DHT22;10677;50.942;4.028;2023-02-11T01:46:47;6.80;99.90
21037;DHT22;10677;50.942;4.028;2023-02-11T01:49:41;6.90;99.90
21037;DHT22;10677;50.942;4.028;2023-02-11T01:54:52;7.00;99.90
21037;DHT22;10677;50.942;4.028;2023-02-11T01:57:40;7.00;99.90
21037;DHT22;10677;50.942;4.028;2023-02-11T02:00:39;7.10;99.90
21037;DHT22;10677;50.942;4.028;2023-02-11T02:03:05;7.10;99.90
21037;DHT22;10677;50.942;4.028;2023-02-11T02:08:43;7.20;99.90
21037;DHT22;10677;50.942;4.028;2023-02-11T02:11:11;7.40;99.90
21037;DHT22;10677;50.942;4.028;2023-02-11T02:13:37;7.40;99.90
21037;DHT22;10677;50.942;4.028;2023-02-11T02:16:07;7.40;99.90
21037;DHT22;10677;50.942;4.028;2023-02-11T02:26:37;7.50;99.90
21037;DHT22;10677;50.942;4.028;2023-02-11T02:37:23;7.60;99.90
21037;DHT22;10677;50.942;4.028;2023-02-11T02:39:51;7.60;99.90
21037;DHT22;10677;50.942;4.028;2023-02-11T02:42:19;7.60;99.90
21037;DHT22;10677;50.942;4.028;2023-02-11T02:44:49;7.60;99.90
21037;DHT22;10677;50.942;4.028;2023-02-11T02:47:16;7.60;99.90
21037;DHT22;10677;50.942;4.028;2023-02-11T02:49:41;7.60;99.90
21037;DHT22;10677;50.942;4.028;2023-02-11T02:55:16;7.70;99.90
21037;DHT22;10677;50.942;4.028;2023-02-11T03:00:43;7.80;99.90
21037;DHT22;10677;50.942;4.028;2023-02-11T03:06:01;7.80;99.90
21037;DHT22;10677;50.942;4.028;2023-02-11T03:08:43;7.90;99.90
21037;DHT22;10677;50.942;4.028;2023-02-11T03:11:11;7.90;99.90
21037;DHT22;10677;50.942;4.028;2023-02-11T03:13:40;7.90;99.90
21037;DHT22;10677;50.942;4.028;2023-02-11T03:16:14;7.90;99.90
21037;DHT22;10677;50.942;4.028;2023-02-11T03:18:43;8.00;99.90
21037;DHT22;10677;50.942;4.028;2023-02-11T03:21:12;8.00;99.90
21037;DHT22;10677;50.942;4.028;2023-02-11T03:23:49;8.00;99.90
21037;DHT22;10677;50.942;4.028;2023-02-11T03:26:29;8.00;99.90
21037;DHT22;10677;50.942;4.028;2023-02-11T03:34:11;8.00;99.90
21037;DHT22;10677;50.942;4.028;2023-02-11T03:39:17;8.10;99.90
21037;DHT22;10677;50.942;4.028;2023-02-11T03:41:44;8.10;99.90
21037;DHT22;10677;50.942;4.028;2023-02-11T03:44:13;8.00;99.90
21037;DHT22;10677;50.942;4.028;2023-02-11T03:46:43;8.00;99.90
21037;DHT22;10677;50.942;4.028;2023-02-11T03:49:12;8.00;99.90
21037;DHT22;10677;50.942;4.028;2023-02-11T03:51:39;8.10;99.90
21037;DHT22;10677;50.942;4.028;2023-02-11T03:54:10;8.10;99.90
21037;DHT22;10677;50.942;4.028;2023-02-11T03:56:42;8.10;99.90
21037;DHT22;10677;50.942;4.028;2023-02-11T03:59:11;8.10;99.90
21037;DHT22;10677;50.942;4.028;2023-02-11T04:01:36;8.10;99.90
21037;DHT22;10677;50.942;4.028;2023-02-11T04:04:02;8.10;99.90
21037;DHT22;10677;50.942;4.028;2023-02-11T04:06:28;8.10;99.90
21037;DHT22;10677;50.942;4.028;2023-02-11T04:08:53;8.20;99.90
21037;DHT22;10677;50.942;4.028;2023-02-11T04:11:19;8.10;99.90
21037;DHT22;10677;50.942;4.028;2023-02-11T04:13:45;8.00;99.90
21037;DHT22;10677;50.942;4.028;2023-02-11T04:16:10;8.10;99.90
21037;DHT22;10677;50.942;4.028;2023-02-11T04:18:36;8.10;99.90
21037;DHT22;10677;50.942;4.028;2023-02-11T04:21:01;8.20;99.90
21037;DHT22;10677;50.942;4.028;2023-02-11T04:23:27;8.20;99.90
21037;DHT22;10677;50.942;4.028;2023-02-11T04:25:53;8.20;99.90
21037;DHT22;10677;50.942;4.028;2023-02-11T04:28:19;8.30;99.90
21037;DHT22;10677;50.942;4.028;2023-02-11T04:30:44;8.30;99.90
21037;DHT22;10677;50.942;4.028;2023-02-11T04:33:10;8.40;99.90
21037;DHT22;10677;50.942;4.028;2023-02-11T04:35:36;8.40;99.90
21037;DHT22;10677;50.942;4.028;2023-02-11T04:38:01;8.50;99.90
21037;DHT22;10677;50.942;4.028;2023-02-11T04:40:27;8.60;99.90
21037;DHT22;10677;50.942;4.028;2023-02-11T04:42:52;8.60;99.90
21037;DHT22;10677;50.942;4.028;2023-02-11T04:45:18;8.50;99.90
21037;DHT22;10677;50.942;4.028;2023-02-11T04:47:44;8.50;99.90
21037;DHT22;10677;50.942;4.028;2023-02-11T04:50:09;8.40;99.90
21037;DHT22;10677;50.942;4.028;2023-02-11T04:52:35;8.40;99.90
21037;DHT22;10677;50.942;4.028;2023-02-11T04:55:00;8.50;99.90
21037;DHT22;10677;50.942;4.028;2023-02-11T04:57:26;8.40;99.90
21037;DHT22;10677;50.942;4.028;2023-02-11T04:59:52;8.40;99.90
21037;DHT22;10677;50.942;4.028;2023-02-11T05:02:17;8.40;99.90
21037;DHT22;10677;50.942;4.028;2023-02-11T05:04:43;8.40;99.90
21037;DHT22;10677;50.942;4.028;2023-02-11T05:07:09;8.30;99.90
21037;DHT22;10677;50.942;4.028;2023-02-11T05:09:34;8.30;99.90
21037;DHT22;10677;50.942;4.028;2023-02-11T05:12:00;8.30;99.90
21037;DHT22;10677;50.942;4.028;2023-02-11T05:14:25;8.30;99.90
21037;DHT22;10677;50.942;4.028;2023-02-11T05:16:51;8.20;99.90
21037;DHT22;10677;50.942;4.028;2023-02-11T05:19:17;8.20;99.90
21037;DHT22;10677;50.942;4.028;2023-02-11T05:21:42;8.20;99.90
21037;DHT22;10677;50.942;4.028;2023-02-11T05:24:08;8.10;99.90
21037;DHT22;10677;50.942;4.028;2023-02-11T05:26:33;8.20;99.90
21037;DHT22;10677;50.942;4.028;2023-02-11T05:28:59;8.20;99.90
21037;DHT22;10677;50.942;4.028;2023-02-11T05:31:25;8.20;99.90
21037;DHT22;10677;50.942;4.028;2023-02-11T05:33:50;8.10;99.90
21037;DHT22;10677;50.942;4.028;2023-02-11T05:36:16;8.20;99.90
21037;DHT22;10677;50.942;4.028;2023-02-11T05:38:42;8.30;99.90
21037;DHT22;10677;50.942;4.028;2023-02-11T05:41:09;8.30;99.90
21037;DHT22;10677;50.942;4.028;2023-02-11T05:43:35;8.30;99.90
21037;DHT22;10677;50.942;4.028;2023-02-11T05:46:02;8.30;99.90
21037;DHT22;10677;50.942;4.028;2023-02-11T05:48:28;8.20;99.90
21037;DHT22;10677;50.942;4.028;2023-02-11T05:50:53;8.20;99.90
21037;DHT22;10677;50.942;4.028;2023-02-11T05:53:19;8.20;99.90
21037;DHT22;10677;50.942;4.028;2023-02-11T05:55:45;8.20;99.90
21037;DHT22;10677;50.942;4.028;2023-02-11T05:58:10;8.20;99.90
21037;DHT22;10677;50.942;4.028;2023-02-11T06:00:36;8.30;99.90
21037;DHT22;10677;50.942;4.028;2023-02-11T06:03:02;8.30;99.90
21037;DHT22;10677;50.942;4.028;2023-02-11T06:05:29;8.40;99.90
21037;DHT22;10677;50.942;4.028;2023-02-11T06:07:54;8.50;99.90
21037;DHT22;10677;50.942;4.028;2023-02-11T06:10:20;8.50;99.90
21037;DHT22;10677;50.942;4.028;2023-02-11T06:12:46;8.50;99.90
21037;DHT22;10677;50.942;4.028;2023-02-11T06:15:11;8.50;99.90
21037;DHT22;10677;50.942;4.028;2023-02-11T06:17:37;8.50;99.90
21037;DHT22;10677;50.942;4.028;2023-02-11T06:20:05;8.60;99.90
21037;DHT22;10677;50.942;4.028;2023-02-11T06:22:31;8.60;99.90
21037;DHT22;10677;50.942;4.028;2023-02-11T06:24:57;8.60;99.90
21037;DHT22;10677;50.942;4.028;2023-02-11T06:27:22;8.70;99.90
21037;DHT22;10677;50.942;4.028;2023-02-11T06:29:48;8.60;99.90
21037;DHT22;10677;50.942;4.028;2023-02-11T06:32:14;8.60;99.90
21037;DHT22;10677;50.942;4.028;2023-02-11T06:34:40;8.50;99.90
21037;DHT22;10677;50.942;4.028;2023-02-11T06:37:05;8.50;99.90
21037;DHT22;10677;50.942;4.028;2023-02-11T06:39:31;8.50;99.90
21037;DHT22;10677;50.942;4.028;2023-02-11T06:41:57;8.40;99.90
21037;DHT22;10677;50.942;4.028;2023-02-11T06:44:23;8.40;99.90
21037;DHT22;10677;50.942;4.028;2023-02-11T06:46:48;8.40;99.90
21037;DHT22;10677;50.942;4.028;2023-02-11T06:49:14;8.20;99.90
21037;DHT22;10677;50.942;4.028;2023-02-11T06:51:40;8.20;99.90
21037;DHT22;10677;50.942;4.028;2023-02-11T06:54:06;8.20;99.90
21037;DHT22;10677;50.942;4.028;2023-02-11T06:56:32;8.20;99.90
21037;DHT22;10677;50.942;4.028;2023-02-11T06:58:59;8.20;99.90
21037;DHT22;10677;50.942;4.028;2023-02-11T07:01:25;8.20;99.90
21037;DHT22;10677;50.942;4.028;2023-02-11T07:03:51;8.20;99.90
21037;DHT22;10677;50.942;4.028;2023-02-11T07:06:20;8.20;99.90
21037;DHT22;10677;50.942;4.028;2023-02-11T07:08:46;8.20;99.90
21037;DHT22;10677;50.942;4.028;2023-02-11T07:11:14;8.30;99.90
21037;DHT22;10677;50.942;4.028;2023-02-11T07:13:40;8.30;99.90
21037;DHT22;10677;50.942;4.028;2023-02-11T07:16:09;8.30;99.90
21037;DHT22;10677;50.942;4.028;2023-02-11T07:18:35;8.30;99.90
21037;DHT22;10677;50.942;4.028;2023-02-11T07:21:08;8.40;99.90
21037;DHT22;10677;50.942;4.028;2023-02-11T07:23:35;8.40;99.90
21037;DHT22;10677;50.942;4.028;2023-02-11T07:26:05;8.40;99.90
21037;DHT22;10677;50.942;4.028;2023-02-11T07:28:33;8.40;99.90
21037;DHT22;10677;50.942;4.028;2023-02-11T07:31:05;8.40;99.90
21037;DHT22;10677;50.942;4.028;2023-02-11T07:33:31;8.50;99.90
21037;DHT22;10677;50.942;4.028;2023-02-11T07:35:59;8.50;99.90
21037;DHT22;10677;50.942;4.028;2023-02-11T07:38:26;8.60;99.90
21037;DHT22;10677;50.942;4.028;2023-02-11T07:40:51;8.70;99.90
21037;DHT22;10677;50.942;4.028;2023-02-11T07:43:17;8.70;99.90
21037;DHT22;10677;50.942;4.028;2023-02-11T07:45:42;8.80;99.90
21037;DHT22;10677;50.942;4.028;2023-02-11T07:48:11;8.80;99.90
21037;DHT22;10677;50.942;4.028;2023-02-11T07:50:36;8.80;99.90
21037;DHT22;10677;50.942;4.028;2023-02-11T07:53:02;8.70;99.90
21037;DHT22;10677;50.942;4.028;2023-02-11T07:55:28;8.80;99.90
21037;DHT22;10677;50.942;4.028;2023-02-11T07:57:53;8.90;99.90
21037;DHT22;10677;50.942;4.028;2023-02-11T08:00:19;8.90;99.90
21037;DHT22;10677;50.942;4.028;2023-02-11T08:02:44;9.00;99.90
21037;DHT22;10677;50.942;4.028;2023-02-11T08:05:10;9.00;99.90
21037;DHT22;10677;50.942;4.028;2023-02-11T08:07:36;9.00;99.90
21037;DHT22;10677;50.942;4.028;2023-02-11T08:10:01;9.10;99.90
21037;DHT22;10677;50.942;4.028;2023-02-11T08:12:27;9.10;99.90
21037;DHT22;10677;50.942;4.028;2023-02-11T08:14:53;9.20;99.90
21037;DHT22;10677;50.942;4.028;2023-02-11T08:17:18;9.30;99.90
21037;DHT22;10677;50.942;4.028;2023-02-11T08:19:44;9.30;99.90
21037;DHT22;10677;50.942;4.028;2023-02-11T08:22:09;9.40;99.90
21037;DHT22;10677;50.942;4.028;2023-02-11T08:24:35;9.40;99.90
21037;DHT22;10677;50.942;4.028;2023-02-11T08:27:01;9.30;99.90
21037;DHT22;10677;50.942;4.028;2023-02-11T08:29:26;9.30;99.90
21037;DHT22;10677;50.942;4.028;2023-02-11T08:31:52;9.30;99.90
21037;DHT22;10677;50.942;4.028;2023-02-11T08:34:17;9.40;99.90
21037;DHT22;10677;50.942;4.028;2023-02-11T08:36:44;9.40;99.90
21037;DHT22;10677;50.942;4.028;2023-02-11T08:39:20;9.50;99.90
21037;DHT22;10677;50.942;4.028;2023-02-11T08:41:51;9.50;99.90
21037;DHT22;10677;50.942;4.028;2023-02-11T08:44:18;9.50;99.90
21037;DHT22;10677;50.942;4.028;2023-02-11T08:46:44;9.60;99.90
21037;DHT22;10677;50.942;4.028;2023-02-11T08:49:10;9.50;99.90
21037;DHT22;10677;50.942;4.028;2023-02-11T08:51:35;9.50;99.90
21037;DHT22;10677;50.942;4.028;2023-02-11T08:54:01;9.50;99.90
21037;DHT22;10677;50.942;4.028;2023-02-11T08:56:27;9.50;99.90
21037;DHT22;10677;50.942;4.028;2023-02-11T08:58:53;9.50;99.90
21037;DHT22;10677;50.942;4.028;2023-02-11T09:01:25;9.60;99.90
21037;DHT22;10677;50.942;4.028;2023-02-11T09:03:51;9.50;99.90
21037;DHT22;10677;50.942;4.028;2023-02-11T09:06:17;9.40;99.90
21037;DHT22;10677;50.942;4.028;2023-02-11T09:08:46;9.40;99.90
21037;DHT22;10677;50.942;4.028;2023-02-11T09:11:14;9.50;99.90
21037;DHT22;10677;50.942;4.028;2023-02-11T09:13:41;9.60;99.90
21037;DHT22;10677;50.942;4.028;2023-02-11T09:16:18;9.60;99.90
21037;DHT22;10677;50.942;4.028;2023-02-11T09:18:44;9.60;99.90
21037;DHT22;10677;50.942;4.028;2023-02-11T09:21:10;9.70;99.90
21037;DHT22;10677;50.942;4.028;2023-02-11T09:23:36;9.80;99.90
21037;DHT22;10677;50.942;4.028;2023-02-11T09:26:29;9.90;99.90
21037;DHT22;10677;50.942;4.028;2023-02-11T09:28:55;9.80;99.90
21037;DHT22;10677;50.942;4.028;2023-02-11T09:31:24;9.80;99.90
21037;DHT22;10677;50.942;4.028;2023-02-11T09:33:52;10.00;99.90
21037;DHT22;10677;50.942;4.028;2023-02-11T09:36:23;10.00;99.90
21037;DHT22;10677;50.942;4.028;2023-02-11T09:38:50;10.00;99.90
21037;DHT22;10677;50.942;4.028;2023-02-11T09:43:57;10.10;99.90
21037;DHT22;10677;50.942;4.028;2023-02-11T09:46:25;10.00;99.90
21037;DHT22;10677;50.942;4.028;2023-02-11T09:48:53;10.10;99.90
21037;DHT22;10677;50.942;4.028;2023-02-11T09:51:47;10.00;99.90
21037;DHT22;10677;50.942;4.028;2023-02-11T09:54:22;10.10;99.90
21037;DHT22;10677;50.942;4.028;2023-02-11T09:56:50;10.00;99.90
21037;DHT22;10677;50.942;4.028;2023-02-11T09:59:16;10.10;99.90
21037;DHT22;10677;50.942;4.028;2023-02-11T10:02:04;10.10;99.90
21037;DHT22;10677;50.942;4.028;2023-02-11T10:13:32;10.00;99.90
21037;DHT22;10677;50.942;4.028;2023-02-11T10:21:39;10.00;99.90
21037;DHT22;10677;50.942;4.028;2023-02-11T10:24:13;10.10;99.90
21037;DHT22;10677;50.942;4.028;2023-02-11T10:26:40;10.10;99.90
21037;DHT22;10677;50.942;4.028;2023-02-11T10:29:25;10.10;99.90
21037;DHT22;10677;50.942;4.028;2023-02-11T10:31:54;10.00;99.90
21037;DHT22;10677;50.942;4.028;2023-02-11T10:34:20;10.00;99.90
21037;DHT22;10677;50.942;4.028;2023-02-11T10:36:45;10.10;99.90
21037;DHT22;10677;50.942;4.028;2023-02-11T10:39:15;10.10;99.90
21037;DHT22;10677;50.942;4.028;2023-02-11T10:42:05;10.20;99.90
21037;DHT22;10677;50.942;4.028;2023-02-11T10:44:54;10.30;99.90
21037;DHT22;10677;50.942;4.028;2023-02-11T10:47:23;10.20;99.90
21037;DHT22;10677;50.942;4.028;2023-02-11T10:49:49;10.30;99.90
21037;DHT22;10677;50.942;4.028;2023-02-11T10:52:22;10.20;99.90
21037;DHT22;10677;50.942;4.028;2023-02-11T10:57:59;10.20;99.90
21037;DHT22;10677;50.942;4.028;2023-02-11T11:00:37;10.10;99.90
21037;DHT22;10677;50.942;4.028;2023-02-11T11:03:18;10.20;99.90
21037;DHT22;10677;50.942;4.028;2023-02-11T11:08:12;10.20;99.90
21037;DHT22;10677;50.942;4.028;2023-02-11T11:11:13;10.30;99.90
21037;DHT22;10677;50.942;4.028;2023-02-11T11:13:38;10.30;99.90
21037;DHT22;10677;50.942;4.028;2023-02-11T11:18:32;10.40;99.90
21037;DHT22;10677;50.942;4.028;2023-02-11T11:21:40;10.40;99.90
21037;DHT22;10677;50.942;4.028;2023-02-11T11:24:01;10.50;99.90
21037;DHT22;10677;50.942;4.028;2023-02-11T11:29:13;10.60;99.90
21037;DHT22;10677;50.942;4.028;2023-02-11T11:31:48;10.60;99.90
21037;DHT22;10677;50.942;4.028;2023-02-11T11:34:27;10.70;99.90
21037;DHT22;10677;50.942;4.028;2023-02-11T11:36:55;10.70;99.90
21037;DHT22;10677;50.942;4.028;2023-02-11T11:39:26;10.70;99.90
21037;DHT22;10677;50.942;4.028;2023-02-11T11:41:56;10.70;99.90
21037;DHT22;10677;50.942;4.028;2023-02-11T11:44:40;10.70;99.90
21037;DHT22;10677;50.942;4.028;2023-02-11T11:47:19;10.90;99.90
21037;DHT22;10677;50.942;4.028;2023-02-11T11:55:26;11.10;99.90
21037;DHT22;10677;50.942;4.028;2023-02-11T11:57:53;11.00;99.90
21037;DHT22;10677;50.942;4.028;2023-02-11T12:03:36;11.20;99.90
21037;DHT22;10677;50.942;4.028;2023-02-11T12:20:24;10.90;99.90
21037;DHT22;10677;50.942;4.028;2023-02-11T12:25:37;11.00;99.90
21037;DHT22;10677;50.942;4.028;2023-02-11T12:28:06;10.80;99.90
21037;DHT22;10677;50.942;4.028;2023-02-11T12:38:31;10.90;99.90
21037;DHT22;10677;50.942;4.028;2023-02-11T12:43:37;10.90;99.90
21037;DHT22;10677;50.942;4.028;2023-02-11T12:57:30;10.60;99.90
21037;DHT22;10677;50.942;4.028;2023-02-11T13:05:45;11.00;99.90
21037;DHT22;10677;50.942;4.028;2023-02-11T13:10:49;11.00;99.90
21037;DHT22;10677;50.942;4.028;2023-02-11T13:13:25;10.90;99.90
21037;DHT22;10677;50.942;4.028;2023-02-11T13:16:22;10.80;99.90
21037;DHT22;10677;50.942;4.028;2023-02-11T13:18:55;10.70;99.90
21037;DHT22;10677;50.942;4.028;2023-02-11T13:21:47;10.70;99.90
21037;DHT22;10677;50.942;4.028;2023-02-11T13:27:12;10.70;99.90
21037;DHT22;10677;50.942;4.028;2023-02-11T13:35:41;11.30;99.90
21037;DHT22;10677;50.942;4.028;2023-02-11T13:38:25;11.40;99.90
21037;DHT22;10677;50.942;4.028;2023-02-11T13:43:39;11.50;99.90
21037;DHT22;10677;50.942;4.028;2023-02-11T13:46:15;11.40;99.90
21037;DHT22;10677;50.942;4.028;2023-02-11T13:48:47;11.30;99.90
21037;DHT22;10677;50.942;4.028;2023-02-11T13:51:18;11.30;99.90
21037;DHT22;10677;50.942;4.028;2023-02-11T13:53:57;10.90;99.90
21037;DHT22;10677;50.942;4.028;2023-02-11T14:02:17;10.40;99.90
21037;DHT22;10677;50.942;4.028;2023-02-11T14:13:34;10.70;99.90
21037;DHT22;10677;50.942;4.028;2023-02-11T14:16:12;10.70;99.90
21037;DHT22;10677;50.942;4.028;2023-02-11T14:26:59;10.90;99.90
21037;DHT22;10677;50.942;4.028;2023-02-11T14:29:47;10.90;99.90
21037;DHT22;10677;50.942;4.028;2023-02-11T14:32:33;11.10;99.90
21037;DHT22;10677;50.942;4.028;2023-02-11T14:41:19;11.00;99.90
21037;DHT22;10677;50.942;4.028;2023-02-11T14:43:54;10.90;99.90
21037;DHT22;10677;50.942;4.028;2023-02-11T14:46:22;11.00;99.90
21037;DHT22;10677;50.942;4.028;2023-02-11T14:48:52;11.20;99.90
21037;DHT22;10677;50.942;4.028;2023-02-11T14:51:25;11.30;99.90
21037;DHT22;10677;50.942;4.028;2023-02-11T14:53:54;11.20;99.90
21037;DHT22;10677;50.942;4.028;2023-02-11T14:56:30;11.20;99.90
21037;DHT22;10677;50.942;4.028;2023-02-11T14:58:59;11.20;99.90
21037;DHT22;10677;50.942;4.028;2023-02-11T15:01:35;11.30;99.90
21037;DHT22;10677;50.942;4.028;2023-02-11T15:04:13;11.30;99.90
21037;DHT22;10677;50.942;4.028;2023-02-11T15:06:47;11.40;99.90
21037;DHT22;10677;50.942;4.028;2023-02-11T15:11:47;10.80;99.90
21037;DHT22;10677;50.942;4.028;2023-02-11T15:14:28;10.90;99.90
21037;DHT22;10677;50.942;4.028;2023-02-11T15:17:01;10.90;99.90
21037;DHT22;10677;50.942;4.028;2023-02-11T15:19:30;10.80;99.90
21037;DHT22;10677;50.942;4.028;2023-02-11T15:21:57;10.50;99.90
21037;DHT22;10677;50.942;4.028;2023-02-11T15:24:28;10.40;99.90
21037;DHT22;10677;50.942;4.028;2023-02-11T15:27:03;10.40;99.90
21037;DHT22;10677;50.942;4.028;2023-02-11T15:29:46;10.30;99.90
21037;DHT22;10677;50.942;4.028;2023-02-11T15:32:19;10.50;99.90
21037;DHT22;10677;50.942;4.028;2023-02-11T15:34:47;10.80;99.90
21037;DHT22;10677;50.942;4.028;2023-02-11T15:37:23;10.90;99.90
21037;DHT22;10677;50.942;4.028;2023-02-11T15:39:50;11.10;99.90
21037;DHT22;10677;50.942;4.028;2023-02-11T15:42:26;11.20;99.90
21037;DHT22;10677;50.942;4.028;2023-02-11T15:47:47;11.20;99.90
21037;DHT22;10677;50.942;4.028;2023-02-11T15:50:28;11.10;99.90
21037;DHT22;10677;50.942;4.028;2023-02-11T15:52:59;11.10;99.90
21037;DHT22;10677;50.942;4.028;2023-02-11T15:55:25;10.80;99.90
21037;DHT22;10677;50.942;4.028;2023-02-11T15:57:59;10.60;99.90
21037;DHT22;10677;50.942;4.028;2023-02-11T16:00:33;10.50;99.90
21037;DHT22;10677;50.942;4.028;2023-02-11T16:03:00;10.40;99.90
21037;DHT22;10677;50.942;4.028;2023-02-11T16:05:34;10.60;99.90
21037;DHT22;10677;50.942;4.028;2023-02-11T16:13:24;10.80;99.90
21037;DHT22;10677;50.942;4.028;2023-02-11T16:16:02;10.80;99.90
21037;DHT22;10677;50.942;4.028;2023-02-11T16:18:42;10.80;99.90
21037;DHT22;10677;50.942;4.028;2023-02-11T16:21:16;10.90;99.90
21037;DHT22;10677;50.942;4.028;2023-02-11T16:23:49;11.10;99.90
21037;DHT22;10677;50.942;4.028;2023-02-11T16:26:32;11.20;99.90
21037;DHT22;10677;50.942;4.028;2023-02-11T16:29:22;11.20;99.90
21037;DHT22;10677;50.942;4.028;2023-02-11T16:31:48;11.30;99.90
21037;DHT22;10677;50.942;4.028;2023-02-11T16:34:19;11.10;99.90
21037;DHT22;10677;50.942;4.028;2023-02-11T16:36:46;10.70;99.90
21037;DHT22;10677;50.942;4.028;2023-02-11T16:39:12;10.50;99.90
21037;DHT22;10677;50.942;4.028;2023-02-11T16:41:38;10.50;99.90
21037;DHT22;10677;50.942;4.028;2023-02-11T16:44:04;10.60;99.90
21037;DHT22;10677;50.942;4.028;2023-02-11T16:46:30;10.70;99.90
21037;DHT22;10677;50.942;4.028;2023-02-11T16:49:07;10.60;99.90
21037;DHT22;10677;50.942;4.028;2023-02-11T16:51:38;10.60;99.90
21037;DHT22;10677;50.942;4.028;2023-02-11T16:54:04;10.60;99.90
21037;DHT22;10677;50.942;4.028;2023-02-11T16:56:30;10.60;99.90
21037;DHT22;10677;50.942;4.028;2023-02-11T16:58:55;10.80;99.90
21037;DHT22;10677;50.942;4.028;2023-02-11T17:01:21;10.90;99.90
21037;DHT22;10677;50.942;4.028;2023-02-11T17:03:47;11.00;99.90
21037;DHT22;10677;50.942;4.028;2023-02-11T17:06:13;11.00;99.90
21037;DHT22;10677;50.942;4.028;2023-02-11T17:08:39;10.90;99.90
21037;DHT22;10677;50.942;4.028;2023-02-11T17:11:06;10.90;99.90
21037;DHT22;10677;50.942;4.028;2023-02-11T17:13:32;11.00;99.90
21037;DHT22;10677;50.942;4.028;2023-02-11T17:15:58;11.00;99.90
21037;DHT22;10677;50.942;4.028;2023-02-11T17:18:24;11.00;99.90
21037;DHT22;10677;50.942;4.028;2023-02-11T17:20:49;11.00;99.90
21037;DHT22;10677;50.942;4.028;2023-02-11T17:23:15;10.90;99.90
21037;DHT22;10677;50.942;4.028;2023-02-11T17:25:41;10.80;99.90
21037;DHT22;10677;50.942;4.028;2023-02-11T17:28:08;10.80;99.90
21037;DHT22;10677;50.942;4.028;2023-02-11T17:30:34;10.80;99.90
21037;DHT22;10677;50.942;4.028;2023-02-11T17:33:01;10.90;99.90
21037;DHT22;10677;50.942;4.028;2023-02-11T17:35:26;10.90;99.90
21037;DHT22;10677;50.942;4.028;2023-02-11T17:37:52;10.90;99.90
21037;DHT22;10677;50.942;4.028;2023-02-11T17:40:18;11.00;99.90
21037;DHT22;10677;50.942;4.028;2023-02-11T17:42:44;10.90;99.90
21037;DHT22;10677;50.942;4.028;2023-02-11T17:45:09;10.90;99.90
21037;DHT22;10677;50.942;4.028;2023-02-11T17:47:37;10.70;99.90
21037;DHT22;10677;50.942;4.028;2023-02-11T17:50:03;10.80;99.90
21037;DHT22;10677;50.942;4.028;2023-02-11T17:52:28;10.80;99.90
21037;DHT22;10677;50.942;4.028;2023-02-11T17:54:54;10.70;99.90
21037;DHT22;10677;50.942;4.028;2023-02-11T17:57:20;10.70;99.90
21037;DHT22;10677;50.942;4.028;2023-02-11T17:59:46;10.70;99.90
21037;DHT22;10677;50.942;4.028;2023-02-11T18:02:12;10.70;99.90
21037;DHT22;10677;50.942;4.028;2023-02-11T18:04:38;10.70;99.90
21037;DHT22;10677;50.942;4.028;2023-02-11T18:07:04;10.80;99.90
21037;DHT22;10677;50.942;4.028;2023-02-11T18:09:30;10.80;99.90
21037;DHT22;10677;50.942;4.028;2023-02-11T18:11:55;10.70;99.90
21037;DHT22;10677;50.942;4.028;2023-02-11T18:14:23;10.70;99.90
21037;DHT22;10677;50.942;4.028;2023-02-11T18:16:50;10.70;99.90
21037;DHT22;10677;50.942;4.028;2023-02-11T18:19:16;10.60;99.90
21037;DHT22;10677;50.942;4.028;2023-02-11T18:21:42;10.70;99.90
21037;DHT22;10677;50.942;4.028;2023-02-11T18:24:08;10.70;99.90
21037;DHT22;10677;50.942;4.028;2023-02-11T18:26:34;10.70;99.90
21037;DHT22;10677;50.942;4.028;2023-02-11T18:29:00;10.60;99.90
21037;DHT22;10677;50.942;4.028;2023-02-11T18:31:26;10.40;99.90
21037;DHT22;10677;50.942;4.028;2023-02-11T18:33:52;10.60;99.90
21037;DHT22;10677;50.942;4.028;2023-02-11T18:36:18;10.60;99.90
21037;DHT22;10677;50.942;4.028;2023-02-11T18:38:45;10.60;99.90
21037;DHT22;10677;50.942;4.028;2023-02-11T18:41:11;10.70;99.90
21037;DHT22;10677;50.942;4.028;2023-02-11T18:43:37;10.70;99.90
21037;DHT22;10677;50.942;4.028;2023-02-11T18:46:09;10.70;99.90
21037;DHT22;10677;50.942;4.028;2023-02-11T18:48:35;10.80;99.90
21037;DHT22;10677;50.942;4.028;2023-02-11T18:51:01;10.80;99.90